Flight Track Log - Related Links

Times and Time Zones

All times are in EDT time to prevent confusion due to time zone crossing. See the SKW6454 flight status page for this flight to view local times or setup timezone preferences in your user account.

Time Position Orientation Groundspeed Altitude Reporting Facility
EDT Latitude Longitude Course Direction KTS MPH feet Rate Location/Type
Fri 08:45:00 PM 37.6333 -122.4000 77° East 154 177 1,400  Level Northern Cal TRACON
Fri 08:46:00 PM 37.6833 -122.3500 38° Northeast 227 261 3,900 2,421 Climbing Northern Cal TRACON
Fri 08:46:54 PM 37.7000 -122.2667 76° East 251 289 6,000 2,186 Climbing Northern Cal TRACON
Fri 08:47:00 PM 37.8154 -122.0106 54° Northeast  Level FlightAware Approximate
Fri 08:48:00 PM 37.8824 -121.8852 58° Northeast  Level FlightAware Approximate
Fri 08:48:09 PM 37.7422 -122.1753 60° Northeast 268 308 8,600  Level Oakland Center
Fri 08:49:00 PM 37.9324 -121.7519 58° Northeast  Level FlightAware Approximate
Fri 08:49:10 PM 37.7681 -122.0819 71° East 279 321 10,700  Level Oakland Center
Fri 08:50:00 PM 37.9598 -121.6044 77° East  Level FlightAware Approximate
Fri 08:50:12 PM 37.7947 -121.9800 72° East 303 349 12,500  Level Oakland Center
Fri 08:51:13 PM 37.8267 -121.8742 69° East 320 368 14,400 1,951 Climbing Oakland Center
Fri 08:52:15 PM 37.8653 -121.7397 70° East 339 390 16,500 1,854 Climbing Oakland Center
Fri 08:53:16 PM 37.8978 -121.6258 70° East 345 397 18,200 1,672 Climbing Oakland Center
Fri 08:54:17 PM 37.9317 -121.5064 70° East 359 413 19,900 1,610 Climbing Oakland Center
Fri 08:55:19 PM 37.9647 -121.3925 70° East 360 414 21,500 1,512 Climbing Oakland Center
Fri 08:56:20 PM 37.9989 -121.2692 71° East 370 426 23,000 1,366 Climbing Oakland Center
Fri 08:57:22 PM 38.0344 -121.1453 70° East 374 430 24,300 1,268 Climbing Oakland Center
Fri 08:58:23 PM 38.0753 -120.9928 71° East 381 438 25,600 1,024 Climbing Oakland Center
Fri 08:59:25 PM 38.0942 -120.8528 80° East 402 463 26,400 780 Climbing Oakland Center
Fri 09:00:26 PM 38.1081 -120.7064 83° East 416 479 27,200 787 Climbing Oakland Center
Fri 09:01:27 PM 38.1028 -120.5547 92° East 432 497 28,000 780 Climbing Oakland Center
Fri 09:02:29 PM 38.0956 -120.3972 93° East 443 510 28,800 780 Climbing Oakland Center
Fri 09:03:30 PM 38.0906 -120.2403 92° East 447 514 29,600 738 Climbing Oakland Center
Fri 09:04:31 PM 38.0861 -120.0808 92° East 453 521 30,300 683 Climbing Oakland Center
Fri 09:05:33 PM 38.0858 -119.9192 90° East 457 526 31,000 780 Climbing Oakland Center
Fri 09:06:34 PM 38.1039 -119.7294 83° East 454 522 31,900 829 Climbing Oakland Center
Fri 09:07:36 PM 38.1156 -119.5703 85° East 453 521 32,700 780 Climbing Oakland Center
Fri 09:08:37 PM 38.1253 -119.4161 85° East 442 509 33,500 780 Climbing Oakland Center
Fri 09:09:39 PM 38.1367 -119.2603 85° East 444 511 34,300 732 Climbing Oakland Center
Fri 09:10:40 PM 38.1483 -119.1036 85° East 441 507 35,000 344 Climbing Oakland Center
Fri 09:11:41 PM 38.1606 -118.9494 84° East 442 509 35,000 244 Level Oakland Center
Fri 09:12:43 PM 38.1708 -118.7961 85° East 439 505 35,500 537 Climbing Oakland Center
Fri 09:13:44 PM 38.1814 -118.6406 85° East 442 509 36,100 541 Climbing Oakland Center
Fri 09:14:45 PM 38.1917 -118.4869 85° East 439 505 36,600 439 Climbing Oakland Center
Fri 09:15:47 PM 38.2050 -118.3047 85° East 435 501 37,000 195 Climbing Oakland Center
Fri 09:16:48 PM 38.2147 -118.1519 85° East 435 501 37,000  Level Oakland Center
Fri 09:17:49 PM 38.2247 -118.0011 85° East 436 502 37,000  Level Oakland Center
Fri 09:18:50 PM 38.2344 -117.8444 85° East 442 509 37,000  Level Oakland Center
Fri 09:19:51 PM 38.2442 -117.6875 85° East 444 511 37,000  Level Oakland Center
Fri 09:20:53 PM 38.2533 -117.5311 86° East 443 510 37,000  Level Oakland Center
Fri 09:21:54 PM 38.2622 -117.3769 86° East 440 506 37,000  Level Oakland Center
Fri 09:22:26 PM 38.2683 -117.2806 85° East 438 504 37,000  Level Salt Lake Center
Fri 09:22:55 PM 38.2717 -117.2239 86° East 437 503 37,000  Level Oakland Center
Fri 09:23:28 PM 38.2775 -117.1219 86° East 439 505 37,000  Level Salt Lake Center
Fri 09:24:29 PM 38.2847 -116.9667 87° East 434 499 37,000  Level Salt Lake Center
Fri 09:25:30 PM 38.2939 -116.8122 86° East 434 499 37,000  Level Salt Lake Center
Fri 09:25:59 PM 38.2969 -116.7514 86° East 433 498 37,000  Level Oakland Center
Fri 09:27:00 PM 38.3042 -116.5997 86° East 430 495 37,000  Level Oakland Center
Fri 09:28:01 PM 38.3119 -116.4486 86° East 428 493 37,000  Level Oakland Center
Fri 09:28:35 PM 38.3169 -116.3589 86° East 426 490 37,000  Level Salt Lake Center
Fri 09:29:36 PM 38.3242 -116.2075 86° East 428 493 37,000  Level Salt Lake Center
Fri 09:30:37 PM 38.3311 -116.0575 87° East 427 491 37,000  Level Salt Lake Center
Fri 09:31:39 PM 38.3383 -115.9089 86° East 421 484 37,000  Level Salt Lake Center
Fri 09:32:40 PM 38.3475 -115.7303 86° East 421 484 37,000  Level Salt Lake Center
Fri 09:33:42 PM 38.3528 -115.5811 87° East 421 484 37,000  Level Salt Lake Center
Fri 09:34:43 PM 38.3594 -115.4314 87° East 423 487 37,000  Level Salt Lake Center
Fri 09:35:45 PM 38.3658 -115.2994 86° East 421 484 37,000  Level Salt Lake Center
Fri 09:36:46 PM 38.3736 -115.1192 87° East 425 489 37,000  Level Salt Lake Center
Fri 09:37:48 PM 38.3800 -114.9711 87° East 420 483 37,000  Level Salt Lake Center
Fri 09:38:49 PM 38.3847 -114.8211 88° East 424 488 37,000  Level Salt Lake Center
Fri 09:39:50 PM 38.3894 -114.6719 88° East 423 487 37,000  Level Salt Lake Center
Fri 09:40:52 PM 38.3953 -114.5219 87° East 423 487 37,000  Level Salt Lake Center
Fri 09:41:53 PM 38.4008 -114.3725 87° East 424 488 37,000  Level Salt Lake Center
Fri 09:42:55 PM 38.4061 -114.2231 87° East 422 486 37,000  Level Salt Lake Center
Fri 09:43:56 PM 38.4106 -114.0736 88° East 421 484 37,000  Level Salt Lake Center
Fri 09:44:58 PM 38.4153 -113.8944 88° East 421 484 37,000  Level Salt Lake Center
Fri 09:45:59 PM 38.4200 -113.7464 88° East 418 481 37,000  Level Salt Lake Center
Fri 09:47:01 PM 38.4242 -113.5983 88° East 417 480 37,000  Level Salt Lake Center
Fri 09:48:02 PM 38.4278 -113.4486 88° East 419 482 37,000  Level Salt Lake Center
Fri 09:49:04 PM 38.4314 -113.2978 88° East 423 487 37,000  Level Salt Lake Center
Fri 09:50:05 PM 38.4358 -113.1494 88° East 421 484 37,000  Level Salt Lake Center
Fri 09:51:07 PM 38.4378 -112.9997 89° East 422 486 37,000  Level Salt Lake Center
Fri 09:52:08 PM 38.4408 -112.8514 88° East 419 482 37,000  Level Salt Lake Center
Fri 09:53:10 PM 38.4444 -112.6986 88° East 424 488 37,000  Level Salt Lake Center
Fri 09:54:11 PM 38.4478 -112.5486 88° East 424 488 37,000  Level Salt Lake Center
Fri 09:55:13 PM 38.4517 -112.3697 88° East 420 483 37,000  Level Salt Lake Center
Fri 09:56:14 PM 38.4536 -112.2200 89° East 421 484 37,000  Level Salt Lake Center
Fri 09:57:16 PM 38.4553 -112.0700 89° East 422 486 37,000  Level Salt Lake Center
Fri 09:58:17 PM 38.4578 -111.9208 89° East 421 484 37,000  Level Salt Lake Center
Fri 09:59:19 PM 38.4597 -111.7694 89° East 424 488 37,000  Level Salt Lake Center
Fri 10:00:20 PM 38.4608 -111.6197 89° East 423 487 37,000  Level Salt Lake Center
Fri 10:01:22 PM 38.4622 -111.4689 89° East 425 489 37,000  Level Salt Lake Center
Fri 10:02:23 PM 38.4633 -111.3181 89° East 426 490 37,000  Level Salt Lake Center
Fri 10:03:25 PM 38.4642 -111.1672 90° East 426 490 37,000  Level Salt Lake Center
Fri 10:04:26 PM 38.4650 -110.9878 90° East 422 486 37,000  Level Salt Lake Center
Fri 10:05:28 PM 38.4650 -110.8447 90° East 426 490 37,000  Level Salt Lake Center
Fri 10:06:29 PM 38.4653 -110.7019 90° East 423 487 37,000  Level Salt Lake Center
Fri 10:07:04 PM 38.4642 -110.6036 91° East 427 491 37,000  Level Denver Center
Fri 10:08:17 PM 38.4642 -110.4369 90° East 424 488 37,000  Level Denver Center
Fri 10:09:20 PM 38.4644 -110.2692 90° East 422 486 37,000  Level Denver Center
Fri 10:10:22 PM 38.4636 -110.1000 90° East 428 493 37,000  Level Denver Center
Fri 10:11:23 PM 38.4631 -109.9547 90° East 428 493 37,000  Level Denver Center
Fri 10:12:25 PM 38.4628 -109.7847 90° East 431 496 37,000  Level Denver Center
Fri 10:13:27 PM 38.4608 -109.6392 91° East 430 495 37,000  Level Denver Center
Fri 10:14:29 PM 38.4594 -109.4708 91° East 426 490 37,000  Level Denver Center
Fri 10:15:31 PM 38.4583 -109.3261 91° East 428 493 37,000  Level Denver Center
Fri 10:16:32 PM 38.4567 -109.1836 91° East 422 486 37,000  Level Denver Center
Fri 10:17:34 PM 38.4556 -109.0172 90° East 419 482 37,000  Level Denver Center
Fri 10:18:36 PM 38.4536 -108.8742 91° East 420 483 37,000  Level Denver Center
Fri 10:19:38 PM 38.4514 -108.7064 91° East 424 488 37,000  Level Denver Center
Fri 10:20:39 PM 38.4483 -108.5631 92° East 424 488 37,000  Level Denver Center
Fri 10:21:41 PM 38.4450 -108.3967 91° East 423 487 37,000  Level Denver Center
Fri 10:22:43 PM 38.4433 -108.2522 91° East 425 489 37,000  Level Denver Center
Fri 10:23:45 PM 38.4394 -108.0844 92° East 425 489 37,000  Level Denver Center
Fri 10:24:46 PM 38.4361 -107.9378 92° East 430 495 37,000  Level Denver Center
Fri 10:25:48 PM 38.4322 -107.7669 92° East 433 498 37,000  Level Denver Center
Fri 10:26:50 PM 38.4283 -107.6225 92° East 428 493 37,000  Level Denver Center
Fri 10:27:52 PM 38.4253 -107.4747 91° East 434 499 37,000  Level Denver Center
Fri 10:28:53 PM 38.4203 -107.3033 92° East 435 501 37,000  Level Denver Center
Fri 10:29:55 PM 38.4158 -107.1514 92° East 429 494 37,000  Level Denver Center
Fri 10:30:57 PM 38.4119 -107.0003 92° East 427 491 37,000  Level Denver Center
Fri 10:31:58 PM 38.4064 -106.8478 93° East 431 496 37,000  Level Denver Center
Fri 10:33:00 PM 38.4014 -106.6967 92° East 430 495 37,000  Level Denver Center
Fri 10:34:02 PM 38.3969 -106.5464 92° East 427 491 37,000  Level Denver Center
Fri 10:35:03 PM 38.3919 -106.3956 92° East 426 490 37,000  Level Denver Center
Fri 10:36:05 PM 38.3844 -106.2136 93° East 430 495 37,000  Level Denver Center
Fri 10:37:07 PM 38.3800 -106.0639 92° East 431 496 37,000  Level Denver Center
Fri 10:38:09 PM 38.3739 -105.9192 93° East 429 494 37,000  Level Denver Center
Fri 10:39:10 PM 38.3686 -105.7494 92° East 431 496 37,000  Level Denver Center
Fri 10:40:11 PM 38.3636 -105.6044 92° East 428 493 37,000  Level Denver Center
Fri 10:41:25 PM 38.3561 -105.4356 93° East 428 493 37,000  Level Denver Center
Fri 10:42:27 PM 38.3478 -105.2664 94° East 428 493 37,000  Level Denver Center
Fri 10:43:28 PM 38.3408 -105.0964 93° East 430 495 37,000  Level Denver Center
Fri 10:44:30 PM 38.3497 -104.9519 85° East 426 490 37,000  Level Denver Center
Fri 10:45:31 PM 38.3578 -104.7811 87° East 429 494 37,000  Level Denver Center
Fri 10:46:33 PM 38.3644 -104.6372 87° East 427 491 37,000  Level Denver Center
Fri 10:47:34 PM 38.3719 -104.4903 86° East 430 495 37,000  Level Denver Center
Fri 10:48:48 PM 38.3797 -104.3200 87° East 430 495 37,000  Level Denver Center
Fri 10:49:50 PM 38.3872 -104.1481 87° East 433 498 37,000  Level Denver Center
Fri 10:50:51 PM 38.3936 -103.9783 87° East 430 495 37,000  Level Denver Center
Fri 10:51:53 PM 38.4003 -103.8317 87° East 433 498 37,000  Level Denver Center
Fri 10:52:54 PM 38.4075 -103.6617 87° East 430 495 37,000  Level Denver Center
Fri 10:54:07 PM 38.4131 -103.5153 87° East 430 495 37,000  Level Denver Center
Fri 10:55:09 PM 38.4197 -103.3378 87° East 430 495 37,000  Level Denver Center
Fri 10:56:11 PM 38.4261 -103.1675 87° East 430 495 37,000  Level Denver Center
Fri 10:57:12 PM 38.4308 -103.0236 88° East 427 491 37,000  Level Denver Center
Fri 10:58:13 PM 38.4375 -102.8539 87° East 428 493 37,000  Level Denver Center
Fri 10:59:27 PM 38.4428 -102.7089 87° East 428 493 37,000  Level Denver Center
Fri 11:00:28 PM 38.4483 -102.5150 88° East 430 495 37,000  Level Denver Center
Fri 11:01:30 PM 38.4528 -102.3694 88° East 428 493 37,000  Level Denver Center
Fri 11:02:31 PM 38.4567 -102.2233 88° East 430 495 37,000  Level Denver Center
Fri 11:03:32 PM 38.4611 -102.0542 88° East 428 493 37,000  Level Denver Center
Fri 11:04:34 PM 38.4658 -101.9083 88° East 430 495 37,000  Level Denver Center
Fri 11:05:35 PM 38.4700 -101.7372 88° East 431 496 37,000  Level Denver Center
Fri 11:06:36 PM 38.4739 -101.5911 88° East 431 496 37,000  Level Denver Center
Fri 11:07:38 PM 38.4772 -101.4439 88° East 433 498 37,000  Level Denver Center
Fri 11:08:39 PM 38.4803 -101.2708 89° East 434 499 37,000  Level Denver Center
Fri 11:09:40 PM 38.4839 -101.1219 88° East 438 504 37,000  Level Denver Center
Fri 11:10:42 PM 38.4869 -100.9736 88° East 437 503 37,000  Level Denver Center
Fri 11:11:43 PM 38.4897 -100.7992 89° East 439 505 37,000  Level Denver Center
Fri 11:12:44 PM 38.4922 -100.6492 89° East 440 506 37,000  Level Denver Center
Fri 11:13:46 PM 38.4942 -100.4750 89° East 440 506 37,000  Level Denver Center
Fri 11:14:47 PM 38.4961 -100.3242 89° East 443 510 37,000  Level Denver Center
Fri 11:15:48 PM 38.4983 -100.1744 89° East 441 507 37,000  Level Denver Center
Fri 11:16:50 PM 38.5008 -100.0008 89° East 439 505 37,000  Level Denver Center
Fri 11:18:03 PM 38.4947 -99.8492 93° East 444 511 37,000  Level Denver Center
Fri 11:18:23 PM 38.4906 -99.7719 94° East 444 511 37,000 -760 Level Kansas City Center
Fri 11:20:00 PM 38.4805 -99.5231 93° East  Level FlightAware Approximate
Fri 11:27:00 PM 38.4311 -98.4467 93° East  Level FlightAware Approximate
Fri 11:28:00 PM 38.4233 -98.2931 94° East  Level FlightAware Approximate
Fri 11:29:00 PM 38.4152 -98.1394 94° East  Level FlightAware Approximate
Fri 11:30:00 PM 38.4069 -97.9859 94° East  Level FlightAware Approximate
Fri 11:31:00 PM 38.3985 -97.8323 94° East  Level FlightAware Approximate
Fri 11:32:00 PM 38.3898 -97.6788 94° East  Level FlightAware Approximate
Fri 11:33:00 PM 38.3806 -97.5254 95° East  Level FlightAware Approximate
Fri 11:34:00 PM 38.3704 -97.3720 95° East  Level FlightAware Approximate
Fri 11:35:00 PM 38.3559 -97.2194 98° East  Level FlightAware Approximate
Fri 11:36:00 PM 38.3400 -97.0669 97° East  Level FlightAware Approximate
Fri 11:37:00 PM 38.3286 -96.9139 94° East  Level FlightAware Approximate
Fri 11:38:00 PM 38.3201 -96.7605 94° East  Level FlightAware Approximate
Fri 11:39:00 PM 38.3167 -96.6069 90° East  Level FlightAware Approximate
Fri 11:40:00 PM 38.3036 -96.4549 102° East  Level FlightAware Approximate
Fri 11:41:00 PM 38.2907 -96.3023 95° East  Level FlightAware Approximate
Fri 11:42:00 PM 38.2833 -96.1490 90° East  Level FlightAware Approximate
Fri 11:43:00 PM 38.3552 -96.0310 44° Northeast  Level FlightAware Approximate
Fri 11:44:00 PM 38.4404 -95.9220 45° Northeast  Level FlightAware Approximate
Fri 11:45:00 PM 38.5239 -95.8109 47° Northeast  Level FlightAware Approximate
Fri 11:45:26 PM 38.6333 -95.6500 46° Northeast 334 384 16,200  Level Kansas City TRACON
Fri 11:46:00 PM 38.6061 -95.6979 47° Northeast  Level FlightAware Approximate
Fri 11:46:20 PM 38.7000 -95.5833 38° Northeast 326 375 14,200  Level Kansas City TRACON
Fri 11:47:00 PM 38.6876 -95.5842 47° Northeast  Level FlightAware Approximate
Fri 11:47:20 PM 38.7500 -95.5000 52° Northeast 320 368 12,700  Level Kansas City TRACON
Fri 11:48:00 PM 38.7691 -95.4701 48° Northeast  Level FlightAware Approximate
Fri 11:48:20 PM 38.8000 -95.4000 57° Northeast 295 339 11,000  Level Kansas City TRACON
Fri 11:49:00 PM 38.8425 -95.3530 49° Northeast  Level FlightAware Approximate
Fri 11:49:20 PM 38.8500 -95.3333 46° Northeast 271 312 9,600  Level Kansas City TRACON
Fri 11:50:00 PM 38.9218 -95.2376 46° Northeast  Level FlightAware Approximate
Fri 11:50:14 PM 38.9000 -95.2667 46° Northeast 274 315 8,800  Level Kansas City TRACON
Fri 11:51:14 PM 38.9333 -95.1833 63° Northeast 272 313 8,000 -421 Descending Kansas City TRACON
Fri 11:52:08 PM 38.9833 -95.1167 46° Northeast 268 308 8,000  Level Kansas City TRACON
Fri 11:53:08 PM 39.0333 -95.0333 52° Northeast 266 306 8,000 -650 Level Kansas City TRACON
Fri 11:54:08 PM 39.0667 -94.9667 57° Northeast 259 298 6,700 -1,240 Descending Kansas City TRACON
Fri 11:55:09 PM 39.1167 -94.9000 46° Northeast 242 278 5,500 -1,240 Descending Kansas City TRACON
Fri 11:56:09 PM 39.1500 -94.8333 57° Northeast 233 268 4,200 -1,211 Descending Kansas City TRACON
Fri 11:57:03 PM 39.1833 -94.7667 57° Northeast 227 261 3,200 -1,000 Descending Kansas City TRACON
Fri 11:58:03 PM 39.2333 -94.7500 14° North 148 170 2,300 -835 Descending Kansas City TRACON
Fri 11:58:22 PM 39.2378 -94.7458 36° Northeast 156 180 2,100 -750 Descending Kansas City Center
Fri 11:59:23 PM 39.2786 -94.7342 12° North 136 157 1,300 -545 Descending Kansas City Center
Sat 12:00:23 AM 39.3100 -94.7236 15° North 134 154 1,000 -300 Descending Kansas City Center

Login

Don't have an account? Register now (free) for customized features, flight alerts, and more!